createdAt,value
2018-02-10T00:00:21.776Z,104.40
2018-02-10T00:05:24.472Z,97.23
2018-02-10T00:10:27.317Z,89.77
2018-02-10T00:15:29.930Z,97.10
2018-02-10T00:20:32.732Z,95.03
2018-02-10T00:25:35.328Z,95.57
2018-02-10T00:30:38.696Z,102.00
2018-02-10T00:35:41.399Z,98.03
2018-02-10T00:40:44.783Z,100.90
2018-02-10T00:45:47.403Z,99.80
2018-02-10T00:50:53.960Z,98.80
2018-02-10T00:55:56.661Z,99.33
2018-02-10T01:00:59.696Z,94.23
2018-02-10T01:06:03.152Z,96.23
2018-02-10T01:11:06.437Z,106.23
2018-02-10T01:16:09.237Z,104.90
2018-02-10T01:21:12.249Z,103.23
2018-02-10T01:26:14.848Z,96.47
2018-02-10T01:31:18.446Z,103.43
2018-02-10T01:36:21.860Z,98.30
2018-02-10T01:41:26.110Z,103.93
2018-02-10T01:46:28.776Z,113.33
2018-02-10T01:51:32.462Z,103.67
2018-02-10T01:56:35.109Z,105.80
2018-02-10T02:01:38.507Z,100.37
2018-02-10T02:06:41.127Z,108.27
2018-02-10T02:11:44.608Z,107.40
2018-02-10T02:16:47.241Z,114.00
2018-02-10T02:21:50.711Z,114.23
2018-02-10T02:26:53.349Z,117.03
2018-02-10T02:31:56.223Z,119.70
2018-02-10T02:36:58.826Z,114.50
2018-02-10T02:42:01.513Z,114.20
2018-02-10T02:47:04.137Z,115.93
2018-02-10T02:52:07.632Z,111.97
2018-02-10T02:57:10.277Z,103.13
2018-02-10T03:02:13.615Z,115.37
2018-02-10T03:07:17.014Z,116.17
2018-02-10T03:12:20.682Z,121.67
2018-02-10T03:17:23.328Z,116.70
2018-02-10T03:22:26.133Z,128.40
2018-02-10T03:27:28.762Z,132.43
2018-02-10T03:32:31.636Z,132.90
2018-02-10T03:37:34.275Z,135.33
2018-02-10T03:42:37.827Z,133.67
2018-02-10T03:47:40.480Z,129.47
2018-02-10T03:52:43.878Z,130.10
2018-02-10T03:57:46.506Z,142.03
2018-02-10T04:02:50.095Z,155.60
2018-02-10T04:07:52.720Z,132.87
2018-02-10T04:12:55.953Z,139.10
2018-02-10T04:17:58.661Z,132.90
2018-02-10T04:23:01.705Z,129.90
2018-02-10T04:28:04.542Z,133.17
2018-02-10T04:33:07.289Z,131.67
2018-02-10T04:38:10.005Z,124.73
2018-02-10T04:43:12.966Z,139.87
2018-02-10T04:48:15.701Z,128.37
2018-02-10T04:53:19.873Z,138.27
2018-02-10T04:58:23.409Z,135.90
2018-02-10T05:03:26.772Z,131.10
2018-02-10T05:08:29.462Z,138.40
2018-02-10T05:13:34.509Z,137.83
2018-02-10T05:18:37.189Z,131.10
2018-02-10T05:23:40.254Z,132.70
2018-02-10T05:28:44.530Z,125.37
2018-02-10T05:33:48.177Z,140.63
2018-02-10T05:38:51.160Z,135.57
2018-02-10T05:43:54.666Z,138.03
2018-02-10T05:48:58.031Z,132.57
2018-02-10T05:54:00.786Z,121.73
2018-02-10T05:59:04.189Z,115.53
2018-02-10T06:04:07.743Z,112.90
2018-02-10T06:09:10.351Z,128.70
2018-02-10T06:14:13.734Z,101.33
2018-02-10T06:19:17.094Z,116.47
2018-02-10T06:24:19.887Z,107.10
2018-02-10T06:29:22.524Z,113.07
2018-02-10T06:34:25.883Z,119.43
2018-02-10T06:39:28.529Z,108.37
2018-02-10T06:44:32.099Z,108.93
2018-02-10T06:49:34.748Z,114.93
2018-02-10T06:54:37.414Z,119.70
2018-02-10T06:59:40.068Z,112.33
2018-02-10T07:04:43.463Z,113.73
2018-02-10T07:09:46.084Z,111.70
2018-02-10T07:14:50.044Z,107.23
2018-02-10T07:19:52.648Z,108.30
2018-02-10T07:24:56.147Z,104.70
2018-02-10T07:29:59.566Z,103.57
2018-02-10T07:35:03.084Z,114.23
2018-02-10T07:40:06.606Z,113.17
2018-02-10T07:45:10.538Z,103.87
2018-02-10T07:50:13.146Z,102.40
2018-02-10T07:55:15.938Z,112.93
2018-02-10T08:00:18.621Z,110.20
2018-02-10T08:05:22.493Z,106.67
2018-02-10T08:10:25.099Z,101.97
2018-02-10T08:15:27.756Z,98.00
2018-02-10T08:20:31.151Z,99.13
2018-02-10T08:25:34.154Z,94.40
2018-02-10T08:30:36.791Z,108.53
2018-02-10T08:35:40.287Z,107.83
2018-02-10T08:40:42.904Z,101.73
2018-02-10T08:45:47.235Z,97.57
2018-02-10T08:50:50.647Z,112.43
2018-02-10T08:55:54.405Z,100.40
2018-02-10T09:00:57.006Z,112.13
2018-02-10T09:05:59.775Z,111.20
2018-02-10T09:11:03.191Z,108.33
2018-02-10T09:16:08.424Z,118.37
2018-02-10T09:21:11.281Z,104.23
2018-02-10T09:26:15.002Z,109.03
2018-02-10T09:31:17.701Z,102.57
2018-02-10T09:36:22.157Z,111.13
2018-02-10T09:41:25.639Z,129.00
2018-02-10T09:46:29.404Z,96.50
2018-02-10T09:51:32.307Z,99.63
2018-02-10T09:56:35.763Z,97.80
2018-02-10T10:01:38.427Z,96.70
2018-02-10T10:06:41.934Z,104.67
2018-02-10T10:11:45.850Z,98.90
2018-02-10T10:16:50.312Z,97.37
2018-02-10T10:21:53.329Z,88.30
2018-02-10T10:26:56.631Z,81.23
2018-02-10T10:32:00.333Z,80.37
2018-02-10T10:37:03.822Z,76.00
2018-02-10T10:42:07.169Z,78.57
2018-02-10T10:47:11.301Z,76.03
2018-02-10T10:52:15.406Z,68.97
2018-02-10T10:57:19.617Z,73.07
2018-02-10T11:02:22.525Z,59.80
2018-02-10T11:07:26.823Z,64.13
2018-02-10T11:12:29.693Z,64.77
2018-02-10T11:17:32.936Z,61.43
2018-02-10T11:22:35.939Z,67.77
2018-02-10T11:27:39.461Z,67.33
2018-02-10T11:32:42.129Z,68.40
2018-02-10T11:37:45.475Z,77.20
2018-02-10T11:42:48.092Z,73.57
2018-02-10T11:47:51.060Z,49.23
2018-02-10T11:52:54.468Z,66.57
2018-02-10T11:57:58.028Z,62.67
2018-02-10T12:03:00.654Z,61.50
2018-02-10T12:08:04.111Z,62.47
2018-02-10T12:13:07.656Z,64.30
2018-02-10T12:18:11.040Z,61.73
2018-02-10T12:23:13.674Z,41.53
2018-02-10T12:28:17.020Z,57.33
2018-02-10T12:33:19.638Z,65.37
2018-02-10T12:38:22.939Z,64.53
2018-02-10T12:43:25.571Z,62.50
2018-02-10T12:48:35.508Z,61.23
2018-02-10T12:53:38.183Z,54.13
2018-02-10T12:58:41.684Z,59.10
2018-02-10T13:03:44.331Z,58.20
2018-02-10T13:08:47.702Z,59.40
2018-02-10T13:13:50.358Z,53.67
2018-02-10T13:18:54.721Z,67.50
2018-02-10T13:23:58.126Z,63.40
2018-02-10T13:29:00.907Z,53.50
2018-02-10T13:34:03.571Z,48.60
2018-02-10T13:39:06.943Z,53.70
2018-02-10T13:44:09.561Z,55.63
2018-02-10T13:49:13.718Z,46.20
2018-02-10T13:54:16.323Z,47.63
2018-02-10T13:59:19.567Z,45.20
2018-02-10T14:04:23.071Z,46.03
2018-02-10T14:09:25.747Z,47.37
2018-02-10T14:14:28.364Z,36.40
2018-02-10T14:19:31.345Z,49.33
2018-02-10T14:24:34.933Z,45.50
2018-02-10T14:29:38.478Z,44.87
2018-02-10T14:34:41.825Z,50.83
2018-02-10T14:39:44.699Z,51.67
2018-02-10T14:44:47.318Z,50.80
2018-02-10T14:49:50.898Z,52.33
2018-02-10T14:54:53.488Z,57.90
2018-02-10T14:59:56.956Z,56.43
2018-02-10T15:04:59.592Z,59.90
2018-02-10T15:10:02.978Z,62.33
2018-02-10T15:15:05.589Z,56.17
2018-02-10T15:20:08.935Z,55.53
2018-02-10T15:25:11.584Z,62.20
2018-02-10T15:30:27.233Z,57.00
2018-02-10T15:35:29.971Z,53.93
2018-02-10T15:40:32.739Z,56.33
2018-02-10T15:45:35.331Z,55.30
2018-02-10T15:50:38.387Z,55.47
2018-02-10T15:55:41.002Z,56.27
2018-02-10T16:00:44.466Z,55.63
2018-02-10T16:05:47.056Z,56.50
2018-02-10T16:10:50.507Z,59.77
2018-02-10T16:15:53.919Z,51.77
2018-02-10T16:20:58.253Z,53.97
2018-02-10T16:26:01.654Z,57.00
2018-02-10T16:31:04.744Z,54.27
2018-02-10T16:36:07.371Z,59.70
2018-02-10T16:41:10.090Z,60.90
2018-02-10T16:46:13.444Z,54.80
2018-02-10T16:51:16.922Z,51.27
2018-02-10T16:56:19.556Z,54.77
2018-02-10T17:01:23.122Z,53.03
2018-02-10T17:06:25.716Z,59.30
2018-02-10T17:11:29.062Z,71.07
2018-02-10T17:16:31.754Z,56.87
2018-02-10T17:21:35.132Z,57.10
2018-02-10T17:26:38.538Z,54.37
2018-02-10T17:31:42.014Z,61.43
2018-02-10T17:36:44.646Z,54.53
2018-02-10T17:41:47.532Z,62.13
2018-02-10T17:46:50.189Z,80.47
2018-02-10T17:51:54.142Z,69.80
2018-02-10T17:56:57.567Z,60.10
2018-02-10T18:02:00.898Z,61.30
2018-02-10T18:07:03.556Z,56.77
2018-02-10T18:12:07.836Z,61.33
2018-02-10T18:17:10.566Z,60.37
2018-02-10T18:22:14.008Z,61.53
2018-02-10T18:27:16.742Z,58.30
2018-02-10T18:32:20.889Z,60.63
2018-02-10T18:37:23.580Z,59.40
2018-02-10T18:42:27.171Z,58.07
2018-02-10T18:47:30.578Z,52.60
2018-02-10T18:52:33.955Z,56.90
2018-02-10T18:57:36.600Z,56.70
2018-02-10T19:02:40.328Z,56.60
2018-02-10T19:07:43.730Z,87.30
2018-02-10T19:12:46.634Z,59.60
2018-02-10T19:17:49.227Z,57.27
2018-02-10T19:22:52.817Z,55.90
2018-02-10T19:27:55.442Z,57.27
2018-02-10T19:32:58.902Z,55.83
2018-02-10T19:38:01.571Z,57.97
2018-02-10T19:43:05.199Z,56.20
2018-02-10T19:48:07.822Z,61.97
2018-02-10T19:53:11.224Z,56.93
2018-02-10T19:58:14.569Z,51.00
2018-02-10T20:03:17.350Z,60.73
2018-02-10T20:08:20.782Z,59.03
2018-02-10T20:13:23.780Z,55.83
2018-02-10T20:18:26.372Z,50.40
2018-02-10T20:23:29.786Z,60.83
2018-02-10T20:28:33.397Z,52.13
2018-02-10T20:33:37.422Z,51.70
2018-02-10T20:38:41.113Z,50.37
2018-02-10T20:43:44.326Z,46.23
2018-02-10T20:48:47.246Z,50.20
2018-02-10T20:53:50.092Z,45.90
2018-02-10T20:58:53.525Z,46.73
2018-02-10T21:03:57.653Z,48.17
2018-02-10T21:09:00.315Z,46.90
2018-02-10T21:14:03.284Z,50.37
2018-02-10T21:19:06.050Z,45.37
2018-02-10T21:24:09.063Z,46.67
2018-02-10T21:29:11.793Z,51.30
2018-02-10T21:34:15.113Z,46.43
2018-02-10T21:39:17.809Z,45.20
2018-02-10T21:44:21.024Z,51.33
2018-02-10T21:49:23.692Z,44.97
2018-02-10T21:54:26.968Z,50.87
2018-02-10T21:59:29.857Z,47.87
2018-02-10T22:04:33.225Z,53.40
2018-02-10T22:09:35.928Z,46.63
2018-02-10T22:14:39.299Z,50.63
2018-02-10T22:19:41.946Z,53.00
2018-02-10T22:24:44.749Z,46.90
2018-02-10T22:29:47.486Z,50.50
2018-02-10T22:34:50.344Z,49.10
2018-02-10T22:39:53.150Z,45.10
2018-02-10T22:44:56.940Z,48.33
2018-02-10T22:49:59.979Z,52.67
2018-02-10T22:55:02.987Z,48.07
2018-02-10T23:00:05.694Z,48.77
2018-02-10T23:05:09.995Z,45.93
2018-02-10T23:10:12.727Z,50.37
2018-02-10T23:15:15.362Z,51.00
2018-02-10T23:20:18.034Z,51.33
2018-02-10T23:25:21.506Z,51.50
2018-02-10T23:30:24.151Z,49.03
2018-02-10T23:35:34.706Z,47.37
2018-02-10T23:40:37.431Z,51.87
2018-02-10T23:45:40.630Z,56.07
2018-02-10T23:50:43.290Z,54.63
2018-02-10T23:55:46.420Z,55.33
